createdAt,value
2023-03-26T00:00:02.498Z,98093.34
2023-03-26T00:02:06.603Z,98096.53
2023-03-26T00:04:09.510Z,98091.41
2023-03-26T00:06:14.320Z,98089.81
2023-03-26T00:08:17.878Z,98093.69
2023-03-26T00:10:20.876Z,98092.09
2023-03-26T00:12:23.547Z,98089.81
2023-03-26T00:14:27.115Z,98093.25
2023-03-26T00:16:32.237Z,98093.69
2023-03-26T00:18:35.192Z,98098.31
2023-03-26T00:20:38.622Z,98096.50
2023-03-26T00:22:41.813Z,98100.13
2023-03-26T00:24:46.187Z,98096.50
2023-03-26T00:26:53.562Z,98110.66
2023-03-26T00:28:56.348Z,98096.59
2023-03-26T00:31:04.427Z,98098.56
2023-03-26T00:33:08.104Z,98102.44
2023-03-26T00:35:11.248Z,98097.75
2023-03-26T00:37:15.229Z,98107.91
2023-03-26T00:39:18.088Z,98102.78
2023-03-26T00:41:31.271Z,98109.41
2023-03-26T00:43:36.141Z,98116.06
2023-03-26T00:45:39.789Z,98115.94
2023-03-26T00:47:43.789Z,98121.16
2023-03-26T00:49:46.958Z,98123.81
2023-03-26T00:51:49.594Z,98136.03
2023-03-26T00:53:52.302Z,98123.81
2023-03-26T00:56:00.543Z,98138.31
2023-03-26T00:58:03.333Z,98129.31
2023-03-26T01:00:14.785Z,98127.69
2023-03-26T01:02:21.037Z,98133.56
2023-03-26T01:04:31.487Z,98140.63
2023-03-26T01:06:37.980Z,98132.38
2023-03-26T01:08:46.937Z,98132.31
2023-03-26T01:10:53.573Z,98134.34
2023-03-26T01:12:56.299Z,98137.88
2023-03-26T01:15:01.517Z,98146.44
2023-03-26T01:17:07.918Z,98144.84
2023-03-26T01:19:21.380Z,98148.75
2023-03-26T01:21:30.488Z,98149.09
2023-03-26T01:23:49.198Z,98139.88
2023-03-26T01:26:05.883Z,98150.91
2023-03-26T01:28:12.757Z,98153.22
2023-03-26T01:30:27.291Z,98151.63
2023-03-26T01:32:35.047Z,98153.56
2023-03-26T01:35:06.705Z,98155.88
2023-03-26T01:37:52.707Z,98155.88
2023-03-26T01:40:06.305Z,98159.28
2023-03-26T01:42:18.355Z,98161.22
2023-03-26T01:44:41.694Z,98166.72
2023-03-26T01:46:45.776Z,98171.06
2023-03-26T01:48:49.062Z,98169.81
2023-03-26T01:50:56.519Z,98167.50
2023-03-26T01:52:59.197Z,98171.06
2023-03-26T01:55:03.175Z,98177.78
2023-03-26T01:57:06.223Z,98169.56
2023-03-26T01:59:40.811Z,98170.34
2023-03-26T02:02:07.143Z,98170.34
2023-03-26T02:04:44.971Z,98184.06
2023-03-26T02:07:25.839Z,98182.13
2023-03-26T02:09:35.173Z,98177.00
2023-03-26T02:11:40.971Z,98165.59
2023-03-26T02:13:46.073Z,98175.38
2023-03-26T02:15:57.414Z,98167.50
2023-03-26T02:18:02.156Z,98170.94
2023-03-26T02:20:06.147Z,98175.06
2023-03-26T02:22:16.038Z,98165.13
2023-03-26T02:24:20.011Z,98161.94
2023-03-26T02:26:22.586Z,98169.69
2023-03-26T02:28:25.181Z,98179.50
2023-03-26T02:30:29.899Z,98181.13
2023-03-26T02:32:32.943Z,98173.69
2023-03-26T02:34:36.937Z,98184.66
2023-03-26T02:36:39.675Z,98184.97
2023-03-26T02:38:42.425Z,98182.69
2023-03-26T02:40:45.161Z,98193.78
2023-03-26T02:42:48.309Z,98199.25
2023-03-26T02:44:51.006Z,98188.19
2023-03-26T02:46:54.034Z,98195.59
2023-03-26T02:48:56.672Z,98203.03
2023-03-26T02:50:59.274Z,98204.75
2023-03-26T02:53:01.886Z,98203.94
2023-03-26T02:55:04.753Z,98198.09
2023-03-26T02:57:07.444Z,98204.63
2023-03-26T02:59:11.040Z,98201.88
2023-03-26T03:01:13.796Z,98205.00
2023-03-26T03:03:17.506Z,98206.69
2023-03-26T03:05:20.481Z,98211.47
2023-03-26T03:07:24.637Z,98206.44
2023-03-26T03:09:27.246Z,98201.44
2023-03-26T03:11:29.791Z,98204.97
2023-03-26T03:13:32.413Z,98196.41
2023-03-26T03:15:35.898Z,98195.25
2023-03-26T03:17:38.655Z,98199.22
2023-03-26T03:19:41.272Z,98191.78
2023-03-26T03:21:44.024Z,98199.34
2023-03-26T03:23:46.753Z,98201.28
2023-03-26T03:25:51.031Z,98205.63
2023-03-26T03:27:54.166Z,98196.59
2023-03-26T03:29:59.151Z,98196.59
2023-03-26T03:32:02.422Z,98197.41
2023-03-26T03:34:05.269Z,98197.84
2023-03-26T03:36:20.482Z,98197.03
2023-03-26T03:38:24.529Z,98197.41
2023-03-26T03:40:27.343Z,98203.22
2023-03-26T03:42:30.001Z,98214.97
2023-03-26T03:44:32.533Z,98208.69
2023-03-26T03:46:35.344Z,98214.19
2023-03-26T03:48:41.237Z,98214.97
2023-03-26T03:50:43.885Z,98216.22
2023-03-26T03:52:46.613Z,98215.88
2023-03-26T03:54:49.695Z,98211.66
2023-03-26T03:56:52.446Z,98203.44
2023-03-26T03:58:55.741Z,98207.41
2023-03-26T04:01:04.489Z,98215.66
2023-03-26T04:03:10.256Z,98217.59
2023-03-26T04:05:13.019Z,98221.03
2023-03-26T04:07:15.702Z,98232.47
2023-03-26T04:09:18.763Z,98230.84
2023-03-26T04:11:21.572Z,98226.97
2023-03-26T04:13:24.344Z,98240.22
2023-03-26T04:15:27.000Z,98240.22
2023-03-26T04:17:30.741Z,98248.91
2023-03-26T04:19:33.389Z,98242.97
2023-03-26T04:21:38.213Z,98246.97
2023-03-26T04:23:42.537Z,98239.06
2023-03-26T04:25:50.296Z,98245.00
2023-03-26T04:27:55.874Z,98248.56
2023-03-26T04:30:01.801Z,98255.66
2023-03-26T04:32:08.575Z,98253.25
2023-03-26T04:34:24.508Z,98257.94
2023-03-26T04:36:29.958Z,98265.47
2023-03-26T04:38:42.302Z,98263.50
2023-03-26T04:40:47.611Z,98253.25
2023-03-26T04:42:50.407Z,98261.22
2023-03-26T04:44:52.980Z,98252.13
2023-03-26T04:46:56.017Z,98263.28
2023-03-26T04:48:58.595Z,98266.91
2023-03-26T04:51:01.802Z,98271.28
2023-03-26T04:53:05.010Z,98271.28
2023-03-26T04:55:30.061Z,98270.13
2023-03-26T04:57:37.471Z,98261.88
2023-03-26T04:59:41.484Z,98269.41
2023-03-26T05:01:46.191Z,98273.53
2023-03-26T05:03:48.854Z,98272.16
2023-03-26T05:05:51.703Z,98267.66
2023-03-26T05:07:54.718Z,98271.78
2023-03-26T05:09:57.796Z,98275.97
2023-03-26T05:12:00.487Z,98271.81
2023-03-26T05:14:03.226Z,98266.97
2023-03-26T05:16:06.119Z,98276.00
2023-03-26T05:18:08.986Z,98278.47
2023-03-26T05:20:21.077Z,98279.13
2023-03-26T05:22:23.736Z,98282.13
2023-03-26T05:24:27.376Z,98285.06
2023-03-26T05:26:30.230Z,98292.16
2023-03-26T05:28:33.029Z,98300.88
2023-03-26T05:30:35.848Z,98304.75
2023-03-26T05:32:38.588Z,98299.50
2023-03-26T05:34:41.875Z,98301.91
2023-03-26T05:36:44.567Z,98303.94
2023-03-26T05:38:50.117Z,98295.81
2023-03-26T05:40:58.193Z,98312.31
2023-03-26T05:43:00.870Z,98312.63
2023-03-26T05:45:03.540Z,98318.84
2023-03-26T05:47:06.227Z,98317.22
2023-03-26T05:49:08.823Z,98311.41
2023-03-26T05:51:12.491Z,98318.03
2023-03-26T05:53:15.879Z,98316.91
2023-03-26T05:55:18.759Z,98311.28
2023-03-26T05:57:22.628Z,98335.22
2023-03-26T05:59:25.791Z,98318.03
2023-03-26T06:01:29.560Z,98321.22
2023-03-26T06:03:33.534Z,98315.56
2023-03-26T06:05:37.568Z,98317.25
2023-03-26T06:07:40.542Z,98306.00
2023-03-26T06:09:43.877Z,98310.00
2023-03-26T06:11:46.672Z,98312.13
2023-03-26T06:13:49.369Z,98312.25
2023-03-26T06:15:52.468Z,98318.97
2023-03-26T06:17:55.279Z,98314.72
2023-03-26T06:19:58.691Z,98306.19
2023-03-26T06:22:01.588Z,98315.84
2023-03-26T06:24:04.450Z,98323.03
2023-03-26T06:26:07.184Z,98319.66
2023-03-26T06:28:10.052Z,98324.56
2023-03-26T06:30:13.171Z,98320.28
2023-03-26T06:32:20.176Z,98325.84
2023-03-26T06:34:23.392Z,98329.44
2023-03-26T06:36:26.303Z,98328.25
2023-03-26T06:38:28.940Z,98331.81
2023-03-26T06:40:33.854Z,98336.41
2023-03-26T06:43:10.162Z,98334.38
2023-03-26T06:44:59.649Z,98326.84
2023-03-26T06:47:02.408Z,98333.06
2023-03-26T06:49:05.143Z,98335.56
2023-03-26T06:51:08.806Z,98328.88
2023-03-26T06:53:11.795Z,98336.63
2023-03-26T06:55:14.473Z,98318.88
2023-03-26T06:57:17.382Z,98328.19
2023-03-26T06:59:20.101Z,98333.25
2023-03-26T07:01:23.203Z,98327.38
2023-03-26T07:03:26.146Z,98322.25
2023-03-26T07:05:28.772Z,98335.09
2023-03-26T07:07:31.874Z,98335.28
2023-03-26T07:09:34.687Z,98334.94
2023-03-26T07:11:37.348Z,98329.16
2023-03-26T07:13:40.323Z,98329.25
2023-03-26T07:15:43.002Z,98331.28
2023-03-26T07:17:45.931Z,98341.06
2023-03-26T07:19:49.419Z,98341.13
2023-03-26T07:21:52.669Z,98339.19
2023-03-26T07:23:56.891Z,98339.53
2023-03-26T07:26:12.529Z,98329.00
2023-03-26T07:29:05.094Z,98330.94
2023-03-26T07:31:23.645Z,98334.94
2023-03-26T07:34:05.198Z,98341.66
2023-03-26T07:36:22.676Z,98336.34
2023-03-26T07:39:28.882Z,98333.84
2023-03-26T07:41:59.615Z,98342.06
2023-03-26T07:44:20.988Z,98348.97
2023-03-26T07:46:35.085Z,98340.53
2023-03-26T07:48:42.598Z,98344.06
2023-03-26T07:50:45.837Z,98343.22
2023-03-26T07:52:48.924Z,98339.59
2023-03-26T07:54:52.041Z,98343.03
2023-03-26T07:57:06.776Z,98350.34
2023-03-26T07:59:21.643Z,98346.50
2023-03-26T08:01:28.375Z,98343.91
2023-03-26T08:04:23.272Z,98342.47
2023-03-26T08:06:37.538Z,98348.00
2023-03-26T08:08:53.397Z,98334.69
2023-03-26T08:11:09.229Z,98336.47
2023-03-26T08:13:30.854Z,98352.34
2023-03-26T08:16:14.632Z,98343.47
2023-03-26T08:18:33.085Z,98334.84
2023-03-26T08:20:49.714Z,98338.88
2023-03-26T08:23:05.858Z,98344.09
2023-03-26T08:25:40.909Z,98339.88
2023-03-26T08:27:52.745Z,98340.00
2023-03-26T08:30:02.335Z,98340.50
2023-03-26T08:32:14.112Z,98334.66
2023-03-26T08:34:17.384Z,98337.78
2023-03-26T08:36:20.247Z,98341.41
2023-03-26T08:38:23.262Z,98340.97
2023-03-26T08:41:03.590Z,98338.59
2023-03-26T08:44:00.035Z,98335.94
2023-03-26T08:46:18.770Z,98334.28
2023-03-26T08:48:45.953Z,98337.84
2023-03-26T08:50:54.295Z,98333.78
2023-03-26T08:53:15.747Z,98330.91
2023-03-26T08:55:52.237Z,98336.19
2023-03-26T08:58:31.944Z,98333.13
2023-03-26T09:00:59.296Z,98338.63
2023-03-26T09:03:19.027Z,98320.59
2023-03-26T09:05:59.109Z,98324.84
2023-03-26T09:08:32.169Z,98315.44
2023-03-26T09:11:02.996Z,98318.03
2023-03-26T09:13:28.546Z,98314.22
2023-03-26T09:15:36.714Z,98316.63
2023-03-26T09:17:42.213Z,98323.19
2023-03-26T09:20:00.194Z,98309.56
2023-03-26T09:22:17.862Z,98310.94
2023-03-26T09:24:56.436Z,98309.38
2023-03-26T09:27:12.482Z,98313.06
2023-03-26T09:29:37.402Z,98309.22
2023-03-26T09:32:06.985Z,98311.16
2023-03-26T09:34:47.203Z,98314.72
2023-03-26T09:37:28.961Z,98311.22
2023-03-26T09:40:05.588Z,98317.91
2023-03-26T09:42:42.171Z,98312.00
2023-03-26T09:45:06.672Z,98312.09
2023-03-26T09:47:28.177Z,98307.00
2023-03-26T09:49:39.088Z,98309.06
2023-03-26T09:51:53.796Z,98308.69
2023-03-26T09:54:28.530Z,98306.66
2023-03-26T09:56:43.162Z,98297.94
2023-03-26T09:58:55.439Z,98305.03
2023-03-26T10:01:18.597Z,98298.72
2023-03-26T10:03:29.170Z,98299.63
2023-03-26T10:05:43.786Z,98300.94
2023-03-26T10:08:20.466Z,98295.91
2023-03-26T10:10:50.184Z,98296.09
2023-03-26T10:13:14.509Z,98293.78
2023-03-26T10:15:51.514Z,98301.72
2023-03-26T10:18:39.358Z,98302.94
2023-03-26T10:21:08.744Z,98297.47
2023-03-26T10:23:36.047Z,98286.84
2023-03-26T10:25:41.406Z,98293.53
2023-03-26T10:28:01.981Z,98289.59
2023-03-26T10:30:10.548Z,98292.00
2023-03-26T10:32:26.278Z,98286.88
2023-03-26T10:34:51.915Z,98282.50
2023-03-26T10:37:26.021Z,98278.97
2023-03-26T10:39:50.647Z,98284.56
2023-03-26T10:41:56.229Z,98286.13
2023-03-26T10:44:15.962Z,98274.16
2023-03-26T10:46:18.616Z,98265.44
2023-03-26T10:48:30.902Z,98272.56
2023-03-26T10:51:00.937Z,98265.84
2023-03-26T10:53:23.797Z,98265.47
2023-03-26T10:55:34.156Z,98258.38
2023-03-26T10:57:46.186Z,98257.59
2023-03-26T10:59:48.842Z,98246.13
2023-03-26T11:01:51.552Z,98241.72
2023-03-26T11:03:55.989Z,98239.72
2023-03-26T11:06:01.485Z,98237.34
2023-03-26T11:08:35.699Z,98238.47
2023-03-26T11:11:03.127Z,98238.81
2023-03-26T11:13:46.776Z,98243.91
2023-03-26T11:16:13.509Z,98235.16
2023-03-26T11:18:35.508Z,98243.09
2023-03-26T11:20:53.488Z,98241.47
2023-03-26T11:23:12.121Z,98241.38
2023-03-26T11:25:26.814Z,98247.75
2023-03-26T11:27:56.618Z,98231.53
2023-03-26T11:30:42.053Z,98239.09
2023-03-26T11:32:48.620Z,98241.13
2023-03-26T11:34:58.530Z,98240.03
2023-03-26T11:37:08.717Z,98233.34
2023-03-26T11:39:16.810Z,98235.72
2023-03-26T11:41:23.581Z,98243.28
2023-03-26T11:43:34.583Z,98242.91
2023-03-26T11:45:42.522Z,98238.56
2023-03-26T11:47:53.185Z,98245.69
2023-03-26T11:49:59.723Z,98246.16
2023-03-26T11:52:03.832Z,98237.47
2023-03-26T11:54:11.428Z,98233.94
2023-03-26T11:56:23.516Z,98230.78
2023-03-26T11:58:35.077Z,98227.22
2023-03-26T12:00:37.719Z,98222.84
2023-03-26T12:02:41.639Z,98213.38
2023-03-26T12:04:46.619Z,98216.13
2023-03-26T12:06:54.150Z,98218.50
2023-03-26T12:08:57.488Z,98224.06
2023-03-26T12:11:07.200Z,98224.03
2023-03-26T12:13:27.330Z,98214.13
2023-03-26T12:15:34.126Z,98206.16
2023-03-26T12:17:40.347Z,98208.88
2023-03-26T12:19:45.762Z,98202.91
2023-03-26T12:21:53.230Z,98212.06
2023-03-26T12:24:05.454Z,98206.88
2023-03-26T12:26:30.563Z,98203.34
2023-03-26T12:28:33.329Z,98202.19
2023-03-26T12:30:38.120Z,98200.59
2023-03-26T12:32:46.742Z,98202.97
2023-03-26T12:34:50.359Z,98198.94
2023-03-26T12:37:00.233Z,98199.75
2023-03-26T12:40:10.665Z,98191.00
2023-03-26T12:44:44.118Z,98195.78
2023-03-26T12:44:49.799Z,98196.16
2023-03-26T12:48:00.459Z,98187.00
2023-03-26T12:49:17.091Z,98181.44
2023-03-26T12:51:19.860Z,98185.00
2023-03-26T12:53:59.439Z,98175.06
2023-03-26T12:56:36.509Z,98179.78
2023-03-26T12:59:06.722Z,98165.47
2023-03-26T13:01:27.186Z,98170.56
2023-03-26T13:03:56.190Z,98168.56
2023-03-26T13:06:06.920Z,98164.19
2023-03-26T13:08:57.895Z,98152.28
2023-03-26T13:11:06.373Z,98165.94
2023-03-26T13:13:37.624Z,98157.31
2023-03-26T13:15:53.103Z,98161.78
2023-03-26T13:17:58.746Z,98156.28
2023-03-26T13:20:12.385Z,98151.53
2023-03-26T13:22:46.823Z,98147.16
2023-03-26T13:24:59.958Z,98153.88
2023-03-26T13:27:27.201Z,98154.63
2023-03-26T13:29:38.615Z,98151.47
2023-03-26T13:32:10.327Z,98147.50
2023-03-26T13:34:38.291Z,98145.94
2023-03-26T13:37:05.348Z,98140.00
2023-03-26T13:39:36.912Z,98136.44
2023-03-26T13:42:16.009Z,98139.19
2023-03-26T13:44:45.024Z,98136.00
2023-03-26T13:46:57.646Z,98133.63
2023-03-26T13:49:13.949Z,98137.22
2023-03-26T13:51:32.409Z,98131.25
2023-03-26T13:53:44.098Z,98129.25
2023-03-26T13:55:56.015Z,98127.69
2023-03-26T13:58:17.511Z,98127.25
2023-03-26T14:00:29.252Z,98126.84
2023-03-26T14:02:37.037Z,98116.50
2023-03-26T14:04:51.192Z,98115.34
2023-03-26T14:07:04.123Z,98105.41
2023-03-26T14:09:24.795Z,98110.09
2023-03-26T14:11:36.732Z,98108.09
2023-03-26T14:13:49.925Z,98107.28
2023-03-26T14:15:58.247Z,98107.66
2023-03-26T14:18:38.807Z,98110.75
2023-03-26T14:20:47.979Z,98109.94
2023-03-26T14:23:05.107Z,98105.56
2023-03-26T14:26:08.787Z,98101.56
2023-03-26T14:29:25.713Z,98092.81
2023-03-26T14:31:35.957Z,98093.16
2023-03-26T14:34:00.289Z,98084.47
2023-03-26T14:36:28.054Z,98089.16
2023-03-26T14:38:53.387Z,98080.44
2023-03-26T14:41:40.071Z,98079.19
2023-03-26T14:44:07.700Z,98077.53
2023-03-26T14:46:38.070Z,98073.06
2023-03-26T14:49:05.900Z,98075.31
2023-03-26T14:51:56.610Z,98082.28
2023-03-26T14:54:12.415Z,98070.66
2023-03-26T14:56:33.740Z,98072.53
2023-03-26T14:59:22.454Z,98072.81
2023-03-26T15:02:07.359Z,98070.28
2023-03-26T15:04:43.962Z,98067.78
2023-03-26T15:07:23.989Z,98065.34
2023-03-26T15:09:54.349Z,98064.88
2023-03-26T15:12:12.820Z,98062.38
2023-03-26T15:14:41.016Z,98067.00
2023-03-26T15:17:04.742Z,98062.56
2023-03-26T15:19:25.751Z,98066.81
2023-03-26T15:21:31.420Z,98068.28
2023-03-26T15:24:06.625Z,98058.38
2023-03-26T15:26:10.054Z,98065.03
2023-03-26T15:28:26.202Z,98068.16
2023-03-26T15:30:48.780Z,98068.91
2023-03-26T15:33:09.445Z,98076.34
2023-03-26T15:35:32.310Z,98073.56
2023-03-26T15:38:02.126Z,98066.88
2023-03-26T15:40:26.737Z,98067.56
2023-03-26T15:42:58.585Z,98075.44
2023-03-26T15:45:08.068Z,98069.78
2023-03-26T15:47:38.771Z,98072.16
2023-03-26T15:50:09.584Z,98073.56
2023-03-26T15:52:43.223Z,98074.25
2023-03-26T15:54:53.583Z,98072.97
2023-03-26T15:57:18.640Z,98078.81
2023-03-26T15:59:31.148Z,98079.16
2023-03-26T16:01:51.808Z,98073.63
2023-03-26T16:04:17.645Z,98075.19
2023-03-26T16:06:31.161Z,98081.91
2023-03-26T16:08:38.895Z,98089.38
2023-03-26T16:10:51.468Z,98086.22
2023-03-26T16:13:12.883Z,98089.72
2023-03-26T16:15:15.925Z,98088.41
2023-03-26T16:17:23.446Z,98081.63
2023-03-26T16:19:32.738Z,98076.84
2023-03-26T16:21:56.263Z,98089.34
2023-03-26T16:24:08.568Z,98095.94
2023-03-26T16:26:35.656Z,98091.09
2023-03-26T16:29:16.647Z,98092.13
2023-03-26T16:31:37.302Z,98095.88
2023-03-26T16:33:50.972Z,98099.28
2023-03-26T16:36:31.259Z,98096.84
2023-03-26T16:39:12.857Z,98099.91
2023-03-26T16:41:23.728Z,98103.66
2023-03-26T16:43:47.021Z,98099.63
2023-03-26T16:45:52.445Z,98102.72
2023-03-26T16:48:07.118Z,98100.31
2023-03-26T16:50:18.982Z,98105.03
2023-03-26T16:52:42.908Z,98112.41
2023-03-26T16:54:57.351Z,98109.06
2023-03-26T16:57:26.288Z,98115.75
2023-03-26T17:00:04.925Z,98112.13
2023-03-26T17:02:32.991Z,98121.97
2023-03-26T17:04:37.123Z,98108.56
2023-03-26T17:06:54.016Z,98113.28
2023-03-26T17:09:01.504Z,98127.81
2023-03-26T17:11:09.532Z,98118.41
2023-03-26T17:13:23.340Z,98121.16
2023-03-26T17:15:51.611Z,98121.97
2023-03-26T17:18:05.240Z,98119.91
2023-03-26T17:20:33.897Z,98121.81
2023-03-26T17:22:42.672Z,98116.59
2023-03-26T17:24:58.967Z,98114.94
2023-03-26T17:27:28.530Z,98115.63
2023-03-26T17:29:33.813Z,98118.31
2023-03-26T17:31:42.029Z,98120.97
2023-03-26T17:33:44.972Z,98110.34
2023-03-26T17:35:51.443Z,98111.50
2023-03-26T17:37:54.291Z,98114.97
2023-03-26T17:40:09.698Z,98120.47
2023-03-26T17:42:33.002Z,98115.78
2023-03-26T17:44:43.868Z,98106.19
2023-03-26T17:46:49.642Z,98120.31
2023-03-26T17:49:12.544Z,98123.06
2023-03-26T17:51:27.371Z,98125.81
2023-03-26T17:53:32.734Z,98123.50
2023-03-26T17:55:39.003Z,98118.06
2023-03-26T17:57:47.705Z,98111.44
2023-03-26T17:59:56.291Z,98115.03
2023-03-26T18:02:05.727Z,98116.66
2023-03-26T18:04:34.701Z,98120.53
2023-03-26T18:07:14.501Z,98124.91
2023-03-26T18:09:44.734Z,98117.00
2023-03-26T18:11:59.205Z,98111.84
2023-03-26T18:14:19.891Z,98117.34
2023-03-26T18:16:37.171Z,98116.94
2023-03-26T18:19:00.039Z,98110.28
2023-03-26T18:21:07.422Z,98110.34
2023-03-26T18:23:26.852Z,98108.03
2023-03-26T18:25:34.144Z,98113.63
2023-03-26T18:27:40.797Z,98098.00
2023-03-26T18:30:14.504Z,98115.72
2023-03-26T18:32:22.390Z,98104.66
2023-03-26T18:34:26.814Z,98100.22
2023-03-26T18:36:31.332Z,98101.69
2023-03-26T18:38:35.465Z,98098.41
2023-03-26T18:40:43.569Z,98101.44
2023-03-26T18:42:52.492Z,98097.34
2023-03-26T18:44:59.438Z,98098.34
2023-03-26T18:47:08.015Z,98097.03
2023-03-26T18:49:17.390Z,98098.47
2023-03-26T18:51:23.294Z,98088.13
2023-03-26T18:53:34.667Z,98076.88
2023-03-26T18:55:40.291Z,98086.59
2023-03-26T18:57:43.561Z,98085.31
2023-03-26T18:59:50.560Z,98090.34
2023-03-26T19:01:53.294Z,98070.25
2023-03-26T19:03:56.477Z,98077.22
2023-03-26T19:05:59.778Z,98081.47
2023-03-26T19:08:05.628Z,98077.81
2023-03-26T19:10:18.747Z,98078.53
2023-03-26T19:12:30.108Z,98076.88
2023-03-26T19:14:37.057Z,98074.00
2023-03-26T19:16:43.726Z,98078.00
2023-03-26T19:18:47.300Z,98090.47
2023-03-26T19:20:54.623Z,98082.97
2023-03-26T19:22:58.226Z,98086.41
2023-03-26T19:25:02.894Z,98085.19
2023-03-26T19:27:05.974Z,98085.97
2023-03-26T19:29:14.172Z,98085.41
2023-03-26T19:31:32.500Z,98083.50
2023-03-26T19:33:37.990Z,98088.97
2023-03-26T19:35:42.991Z,98081.88
2023-03-26T19:37:54.575Z,98091.28
2023-03-26T19:40:19.083Z,98088.53
2023-03-26T19:42:43.062Z,98086.06
2023-03-26T19:44:48.461Z,98084.78
2023-03-26T19:46:53.765Z,98080.91
2023-03-26T19:48:57.780Z,98086.72
2023-03-26T19:51:05.080Z,98085.16
2023-03-26T19:53:22.629Z,98078.97
2023-03-26T19:55:25.560Z,98081.34
2023-03-26T19:57:32.482Z,98084.88
2023-03-26T19:59:35.174Z,98076.78
2023-03-26T20:01:37.986Z,98069.31
2023-03-26T20:03:43.056Z,98077.28
2023-03-26T20:05:45.763Z,98071.09
2023-03-26T20:07:50.394Z,98072.78
2023-03-26T20:09:54.541Z,98075.25
2023-03-26T20:11:57.341Z,98080.41
2023-03-26T20:14:07.793Z,98076.16
2023-03-26T20:16:19.255Z,98065.59
2023-03-26T20:18:21.843Z,98075.09
2023-03-26T20:20:26.343Z,98073.84
2023-03-26T20:22:29.598Z,98067.47
2023-03-26T20:24:33.206Z,98059.78
2023-03-26T20:26:35.876Z,98067.63
2023-03-26T20:28:47.395Z,98062.53
2023-03-26T20:30:51.953Z,98058.16
2023-03-26T20:33:11.842Z,98064.09
2023-03-26T20:35:20.338Z,98061.69
2023-03-26T20:37:39.244Z,98052.69
2023-03-26T20:39:43.630Z,98045.59
2023-03-26T20:41:49.283Z,98050.66
2023-03-26T20:43:52.489Z,98047.47
2023-03-26T20:45:55.898Z,98047.47
2023-03-26T20:47:59.644Z,98046.22
2023-03-26T20:50:02.497Z,98054.00
2023-03-26T20:52:06.781Z,98042.59
2023-03-26T20:54:16.573Z,98043.94
2023-03-26T20:56:20.658Z,98046.66
2023-03-26T20:58:31.417Z,98040.13
2023-03-26T21:00:34.998Z,98042.50
2023-03-26T21:02:37.776Z,98045.69
2023-03-26T21:04:40.524Z,98039.50
2023-03-26T21:06:43.829Z,98045.00
2023-03-26T21:08:46.785Z,98039.91
2023-03-26T21:10:49.940Z,98041.53
2023-03-26T21:13:06.043Z,98042.78
2023-03-26T21:15:22.492Z,98033.84
2023-03-26T21:17:27.335Z,98039.75
2023-03-26T21:19:30.287Z,98034.28
2023-03-26T21:21:42.003Z,98031.25
2023-03-26T21:23:58.055Z,98032.06
2023-03-26T21:26:18.164Z,98032.47
2023-03-26T21:28:32.206Z,98023.84
2023-03-26T21:30:42.835Z,98019.56
2023-03-26T21:32:46.607Z,98021.16
2023-03-26T21:34:58.511Z,98024.00
2023-03-26T21:37:02.013Z,98023.63
2023-03-26T21:39:06.663Z,98015.03
2023-03-26T21:41:24.655Z,98016.72
2023-03-26T21:43:27.479Z,98013.63
2023-03-26T21:45:30.481Z,98014.13
2023-03-26T21:47:33.529Z,98011.44
2023-03-26T21:49:37.374Z,98011.53
2023-03-26T21:51:41.195Z,98014.72
2023-03-26T21:53:44.117Z,98004.53
2023-03-26T21:55:49.582Z,98010.94
2023-03-26T21:58:12.811Z,97995.69
2023-03-26T22:00:25.807Z,98005.59
2023-03-26T22:03:00.591Z,97992.59
2023-03-26T22:05:19.581Z,98001.00
2023-03-26T22:07:42.971Z,97998.19
2023-03-26T22:09:45.899Z,98002.94
2023-03-26T22:11:48.489Z,97993.97
2023-03-26T22:13:51.211Z,97999.03
2023-03-26T22:15:54.227Z,98000.19
2023-03-26T22:18:04.896Z,98001.00
2023-03-26T22:20:10.441Z,98001.00
2023-03-26T22:22:13.142Z,97998.59
2023-03-26T22:24:15.739Z,98000.56
2023-03-26T22:26:23.368Z,97997.81
2023-03-26T22:28:27.235Z,97983.63
2023-03-26T22:30:29.827Z,97985.22
2023-03-26T22:32:34.494Z,97988.78
2023-03-26T22:34:38.335Z,97996.13
2023-03-26T22:36:41.009Z,97993.91
2023-03-26T22:38:43.641Z,97988.34
2023-03-26T22:40:54.228Z,97993.09
2023-03-26T22:42:57.124Z,97995.78
2023-03-26T22:44:59.770Z,98002.84
2023-03-26T22:47:02.400Z,97992.16
2023-03-26T22:49:05.032Z,97993.25
2023-03-26T22:51:09.376Z,97995.19
2023-03-26T22:53:12.158Z,97986.06
2023-03-26T22:55:15.787Z,97985.13
2023-03-26T22:57:32.191Z,97978.31
2023-03-26T22:59:34.872Z,97983.75
2023-03-26T23:01:37.798Z,97981.34
2023-03-26T23:03:41.008Z,97973.56
2023-03-26T23:05:43.623Z,97977.53
2023-03-26T23:07:46.393Z,97977.97
2023-03-26T23:09:49.080Z,97975.66
2023-03-26T23:11:52.043Z,97981.22
2023-03-26T23:13:54.655Z,97965.91
2023-03-26T23:15:57.342Z,97980.97
2023-03-26T23:18:00.107Z,97976.31
2023-03-26T23:20:13.731Z,97979.06
2023-03-26T23:22:16.962Z,97994.31
2023-03-26T23:24:19.950Z,97994.16
2023-03-26T23:26:24.295Z,97997.00
2023-03-26T23:28:30.392Z,98001.72
2023-03-26T23:30:33.020Z,98011.38
2023-03-26T23:32:38.075Z,97988.81
2023-03-26T23:34:52.121Z,98001.31
2023-03-26T23:36:55.414Z,97995.22
2023-03-26T23:38:59.139Z,97993.63
2023-03-26T23:41:02.550Z,97992.66
2023-03-26T23:43:05.828Z,97992.22
2023-03-26T23:45:08.835Z,97985.00
2023-03-26T23:47:11.486Z,97998.31
2023-03-26T23:49:15.110Z,97992.28
2023-03-26T23:51:20.307Z,97985.22
2023-03-26T23:53:25.046Z,97982.81
2023-03-26T23:55:27.892Z,97974.53
2023-03-26T23:57:30.764Z,97965.41
2023-03-26T23:59:35.328Z,97969.03
